createdAt,value
2022-10-17T00:00:32.929Z,0.00
2022-10-17T00:01:32.955Z,0.00
2022-10-17T00:02:32.913Z,0.00
2022-10-17T00:03:32.905Z,0.00
2022-10-17T00:05:32.890Z,0.00
2022-10-17T00:06:32.881Z,0.00
2022-10-17T00:07:32.873Z,0.00
2022-10-17T00:08:32.865Z,0.00
2022-10-17T00:09:32.884Z,0.00
2022-10-17T00:10:32.855Z,0.00
2022-10-17T00:11:32.841Z,0.00
2022-10-17T00:12:32.833Z,0.00
2022-10-17T00:14:32.844Z,0.00
2022-10-17T00:15:32.810Z,0.00
2022-10-17T00:16:32.795Z,0.00
2022-10-17T00:17:33.797Z,0.00
2022-10-17T00:18:32.795Z,0.00
2022-10-17T00:19:32.958Z,0.00
2022-10-17T00:20:32.773Z,0.00
2022-10-17T00:21:32.768Z,0.00
2022-10-17T00:22:32.783Z,0.00
2022-10-17T00:23:32.738Z,0.00
2022-10-17T00:24:33.776Z,0.00
2022-10-17T00:25:32.740Z,0.00
2022-10-17T00:26:32.739Z,0.00
2022-10-17T00:27:32.726Z,0.00
2022-10-17T00:28:32.748Z,0.00
2022-10-17T00:29:32.747Z,0.00
2022-10-17T00:30:32.694Z,0.00
2022-10-17T00:31:32.690Z,0.00
2022-10-17T00:32:32.684Z,0.00
2022-10-17T00:33:32.668Z,0.00
2022-10-17T00:34:32.664Z,0.00
2022-10-17T00:35:32.693Z,0.00
2022-10-17T00:36:32.639Z,0.00
2022-10-17T00:37:33.647Z,0.00
2022-10-17T00:38:32.632Z,0.00
2022-10-17T00:39:32.628Z,0.00
2022-10-17T00:40:32.642Z,0.00
2022-10-17T00:41:32.611Z,0.00
2022-10-17T00:42:32.598Z,0.00
2022-10-17T00:43:32.595Z,0.00
2022-10-17T00:44:32.576Z,0.00
2022-10-17T00:45:32.598Z,0.00
2022-10-17T00:46:32.566Z,0.00
2022-10-17T00:47:33.552Z,0.00
2022-10-17T00:48:32.546Z,0.00
2022-10-17T00:49:32.543Z,0.00
2022-10-17T00:50:32.563Z,0.00
2022-10-17T00:51:32.524Z,0.00
2022-10-17T00:52:32.516Z,0.00
2022-10-17T00:53:32.511Z,0.00
2022-10-17T00:54:32.503Z,0.00
2022-10-17T00:55:32.517Z,0.00
2022-10-17T00:56:32.485Z,0.00
2022-10-17T00:57:32.483Z,0.00
2022-10-17T00:58:32.473Z,0.00
2022-10-17T00:59:32.460Z,0.00
2022-10-17T01:00:32.475Z,0.00
2022-10-17T01:01:32.510Z,0.00
2022-10-17T01:02:32.438Z,0.00
2022-10-17T01:03:32.426Z,0.00
2022-10-17T01:04:32.426Z,0.00
2022-10-17T01:05:32.443Z,0.00
2022-10-17T01:06:32.405Z,0.00
2022-10-17T01:07:34.925Z,0.00
2022-10-17T01:08:32.398Z,0.00
2022-10-17T01:09:32.379Z,0.00
2022-10-17T01:10:32.394Z,0.00
2022-10-17T01:11:32.367Z,0.00
2022-10-17T01:12:32.354Z,0.00
2022-10-17T01:13:32.354Z,0.00
2022-10-17T01:14:32.335Z,0.00
2022-10-17T01:15:32.359Z,0.00
2022-10-17T01:16:32.326Z,0.00
2022-10-17T01:17:32.320Z,0.00
2022-10-17T01:18:32.304Z,0.00
2022-10-17T01:19:32.307Z,0.00
2022-10-17T01:20:32.326Z,0.00
2022-10-17T01:21:32.288Z,0.00
2022-10-17T01:22:32.280Z,0.00
2022-10-17T01:23:32.268Z,0.00
2022-10-17T01:24:32.268Z,0.00
2022-10-17T01:25:32.285Z,0.00
2022-10-17T01:26:32.245Z,0.00
2022-10-17T01:27:32.236Z,0.00
2022-10-17T01:28:32.264Z,0.00
2022-10-17T01:29:32.222Z,0.00
2022-10-17T01:30:32.240Z,0.00
2022-10-17T01:31:32.203Z,0.00
2022-10-17T01:32:32.198Z,0.00
2022-10-17T01:33:32.186Z,0.00
2022-10-17T01:34:32.181Z,0.00
2022-10-17T01:35:32.197Z,0.00
2022-10-17T01:36:32.162Z,0.00
2022-10-17T01:37:32.154Z,0.00
2022-10-17T01:38:32.156Z,0.00
2022-10-17T01:39:34.416Z,0.00
2022-10-17T01:40:32.159Z,0.00
2022-10-17T01:41:32.127Z,0.00
2022-10-17T01:42:32.113Z,0.00
2022-10-17T01:43:32.104Z,0.00
2022-10-17T01:44:32.099Z,0.00
2022-10-17T01:45:32.123Z,0.00
2022-10-17T01:46:32.086Z,0.00
2022-10-17T01:47:32.079Z,0.00
2022-10-17T01:48:32.071Z,0.00
2022-10-17T01:49:32.063Z,0.00
2022-10-17T01:50:32.076Z,0.00
2022-10-17T01:51:32.048Z,0.00
2022-10-17T01:52:32.038Z,0.00
2022-10-17T01:53:32.033Z,0.00
2022-10-17T01:54:32.025Z,0.00
2022-10-17T01:55:32.044Z,0.00
2022-10-17T01:56:32.006Z,0.00
2022-10-17T01:57:31.998Z,0.00
2022-10-17T01:58:31.990Z,0.00
2022-10-17T01:59:31.984Z,0.00
2022-10-17T02:00:31.997Z,0.00
2022-10-17T02:01:32.048Z,0.00
2022-10-17T02:02:31.964Z,0.00
2022-10-17T02:03:31.954Z,0.00
2022-10-17T02:04:31.938Z,0.00
2022-10-17T02:05:31.968Z,0.00
2022-10-17T02:06:31.923Z,0.00
2022-10-17T02:07:31.922Z,0.00
2022-10-17T02:08:31.911Z,0.00
2022-10-17T02:09:31.902Z,0.00
2022-10-17T02:10:31.918Z,0.00
2022-10-17T02:11:31.890Z,0.00
2022-10-17T02:12:31.887Z,0.00
2022-10-17T02:13:31.876Z,0.00
2022-10-17T02:14:31.863Z,0.00
2022-10-17T02:15:31.883Z,0.00
2022-10-17T02:16:31.845Z,0.00
2022-10-17T02:17:31.840Z,0.00
2022-10-17T02:18:31.843Z,0.00
2022-10-17T02:19:31.823Z,0.00
2022-10-17T02:20:31.848Z,0.00
2022-10-17T02:21:31.817Z,0.00
2022-10-17T02:22:31.798Z,0.00
2022-10-17T02:23:31.788Z,0.00
2022-10-17T02:24:31.793Z,0.00
2022-10-17T02:25:31.772Z,0.00
2022-10-17T02:26:31.788Z,0.00
2022-10-17T02:27:31.756Z,0.00
2022-10-17T02:28:31.841Z,0.00
2022-10-17T02:29:31.738Z,0.00
2022-10-17T02:30:31.758Z,0.00
2022-10-17T02:31:31.725Z,0.00
2022-10-17T02:32:31.722Z,0.00
2022-10-17T02:33:31.708Z,0.00
2022-10-17T02:34:31.691Z,0.00
2022-10-17T02:35:31.709Z,0.00
2022-10-17T02:36:31.679Z,0.00
2022-10-17T02:37:31.768Z,0.00
2022-10-17T02:38:31.666Z,0.00
2022-10-17T02:39:31.683Z,0.00
2022-10-17T02:40:31.645Z,0.00
2022-10-17T02:41:31.651Z,0.00
2022-10-17T02:42:32.017Z,0.00
2022-10-17T02:43:31.635Z,0.00
2022-10-17T02:44:31.641Z,0.00
2022-10-17T02:45:31.612Z,0.00
2022-10-17T02:46:31.607Z,0.00
2022-10-17T02:47:31.596Z,0.00
2022-10-17T02:48:31.594Z,0.00
2022-10-17T02:49:31.613Z,0.00
2022-10-17T02:50:31.580Z,0.00
2022-10-17T02:51:31.565Z,0.00
2022-10-17T02:52:31.861Z,0.00
2022-10-17T02:53:31.545Z,0.00
2022-10-17T02:54:31.571Z,0.00
2022-10-17T02:55:31.534Z,0.00
2022-10-17T02:56:31.531Z,0.00
2022-10-17T02:57:31.517Z,0.00
2022-10-17T02:58:31.517Z,0.00
2022-10-17T02:59:31.635Z,0.00
2022-10-17T03:00:31.507Z,0.00
2022-10-17T03:01:31.570Z,0.00
2022-10-17T03:02:31.756Z,0.00
2022-10-17T03:03:31.472Z,0.00
2022-10-17T03:04:31.482Z,0.00
2022-10-17T03:05:31.451Z,0.00
2022-10-17T03:06:31.442Z,0.00
2022-10-17T03:07:31.431Z,0.00
2022-10-17T03:08:31.457Z,0.00
2022-10-17T03:09:31.441Z,0.00
2022-10-17T03:10:31.409Z,0.00
2022-10-17T03:11:31.398Z,0.00
2022-10-17T03:12:31.725Z,0.00
2022-10-17T03:13:33.013Z,0.00
2022-10-17T03:14:31.402Z,0.00
2022-10-17T03:15:31.365Z,0.00
2022-10-17T03:16:31.365Z,0.00
2022-10-17T03:17:31.371Z,0.00
2022-10-17T03:18:31.343Z,0.00
2022-10-17T03:19:31.363Z,0.00
2022-10-17T03:20:31.326Z,0.00
2022-10-17T03:21:31.321Z,0.00
2022-10-17T03:22:31.756Z,0.00
2022-10-17T03:23:31.308Z,0.00
2022-10-17T03:24:31.318Z,0.00
2022-10-17T03:25:31.288Z,0.00
2022-10-17T03:26:31.282Z,0.00
2022-10-17T03:27:31.664Z,0.00
2022-10-17T03:28:31.288Z,0.00
2022-10-17T03:29:31.284Z,0.00
2022-10-17T03:30:31.250Z,0.00
2022-10-17T03:31:31.258Z,0.00
2022-10-17T03:32:31.237Z,0.00
2022-10-17T03:33:31.234Z,0.00
2022-10-17T03:34:31.252Z,0.00
2022-10-17T03:35:31.223Z,0.00
2022-10-17T03:36:31.208Z,0.00
2022-10-17T03:37:31.364Z,0.00
2022-10-17T03:38:31.194Z,0.00
2022-10-17T03:39:31.211Z,0.00
2022-10-17T03:40:31.170Z,0.00
2022-10-17T03:41:31.164Z,0.00
2022-10-17T03:42:31.167Z,0.00
2022-10-17T03:43:31.152Z,0.00
2022-10-17T03:44:31.173Z,0.00
2022-10-17T03:45:31.138Z,0.00
2022-10-17T03:46:31.123Z,0.00
2022-10-17T03:47:31.486Z,0.00
2022-10-17T03:48:31.112Z,0.00
2022-10-17T03:49:31.140Z,0.00
2022-10-17T03:50:31.098Z,0.00
2022-10-17T03:51:31.095Z,0.00
2022-10-17T03:52:31.084Z,0.00
2022-10-17T03:53:31.091Z,0.00
2022-10-17T03:54:31.102Z,0.00
2022-10-17T03:55:31.064Z,0.00
2022-10-17T03:56:31.052Z,0.00
2022-10-17T03:57:31.430Z,0.00
2022-10-17T03:58:31.041Z,0.00
2022-10-17T03:59:31.024Z,0.00
2022-10-17T04:00:31.048Z,0.00
2022-10-17T04:01:31.069Z,0.00
2022-10-17T04:02:31.009Z,0.00
2022-10-17T04:03:30.992Z,0.00
2022-10-17T04:04:30.993Z,0.00
2022-10-17T04:05:31.005Z,0.00
2022-10-17T04:06:30.969Z,0.00
2022-10-17T04:07:30.966Z,0.00
2022-10-17T04:08:30.964Z,0.00
2022-10-17T04:09:30.952Z,0.00
2022-10-17T04:10:30.967Z,0.00
2022-10-17T04:11:30.934Z,0.00
2022-10-17T04:12:31.466Z,0.00
2022-10-17T04:13:30.935Z,0.00
2022-10-17T04:14:30.915Z,0.00
2022-10-17T04:15:30.930Z,0.00
2022-10-17T04:16:30.900Z,0.00
2022-10-17T04:17:34.548Z,0.00
2022-10-17T04:18:32.879Z,0.00
2022-10-17T04:19:30.875Z,0.00
2022-10-17T04:20:30.887Z,0.00
2022-10-17T04:21:30.863Z,0.00
2022-10-17T04:22:31.242Z,0.00
2022-10-17T04:23:30.847Z,0.00
2022-10-17T04:24:30.842Z,0.00
2022-10-17T04:25:33.431Z,0.00
2022-10-17T04:26:32.819Z,0.00
2022-10-17T04:27:30.806Z,0.00
2022-10-17T04:28:30.933Z,0.00
2022-10-17T04:29:30.794Z,0.00
2022-10-17T04:30:30.815Z,0.00
2022-10-17T04:31:30.776Z,0.00
2022-10-17T04:32:30.966Z,0.00
2022-10-17T04:33:30.767Z,0.00
2022-10-17T04:34:30.759Z,0.00
2022-10-17T04:35:30.773Z,0.00
2022-10-17T04:36:30.740Z,0.00
2022-10-17T04:37:30.738Z,0.00
2022-10-17T04:38:30.723Z,0.00
2022-10-17T04:39:30.721Z,0.00
2022-10-17T04:40:30.740Z,0.00
2022-10-17T04:41:30.702Z,0.00
2022-10-17T04:42:30.921Z,0.00
2022-10-17T04:43:30.686Z,0.00
2022-10-17T04:44:30.679Z,0.00
2022-10-17T04:45:30.689Z,0.00
2022-10-17T04:46:30.662Z,0.00
2022-10-17T04:47:30.652Z,0.00
2022-10-17T04:48:30.647Z,0.00
2022-10-17T04:49:30.678Z,0.00
2022-10-17T04:50:30.667Z,0.00
2022-10-17T04:51:30.622Z,0.00
2022-10-17T04:52:30.879Z,0.00
2022-10-17T04:53:30.609Z,0.00
2022-10-17T04:54:30.599Z,0.00
2022-10-17T04:55:30.615Z,0.00
2022-10-17T04:56:30.577Z,0.00
2022-10-17T04:57:30.580Z,0.00
2022-10-17T04:58:30.569Z,0.00
2022-10-17T04:59:30.563Z,0.00
2022-10-17T05:00:30.605Z,0.00
2022-10-17T05:01:30.545Z,0.00
2022-10-17T05:02:30.949Z,0.00
2022-10-17T05:03:30.526Z,0.00
2022-10-17T05:04:30.523Z,0.00
2022-10-17T05:05:30.547Z,0.00
2022-10-17T05:06:30.512Z,0.00
2022-10-17T05:07:30.498Z,0.00
2022-10-17T05:08:30.493Z,0.00
2022-10-17T05:09:30.489Z,0.00
2022-10-17T05:10:30.497Z,0.00
2022-10-17T05:11:30.465Z,0.00
2022-10-17T05:12:30.796Z,4.00
2022-10-17T05:13:30.454Z,0.00
2022-10-17T05:14:30.443Z,0.00
2022-10-17T05:15:30.456Z,0.00
2022-10-17T05:16:30.424Z,4.00
2022-10-17T05:17:30.414Z,4.00
2022-10-17T05:18:30.406Z,4.00
2022-10-17T05:19:30.405Z,4.00
2022-10-17T05:20:30.420Z,8.00
2022-10-17T05:21:30.450Z,8.00
2022-10-17T05:22:30.623Z,4.00
2022-10-17T05:23:31.369Z,8.00
2022-10-17T05:24:30.364Z,8.00
2022-10-17T05:25:30.384Z,12.00
2022-10-17T05:26:30.344Z,12.00
2022-10-17T05:27:30.339Z,20.00
2022-10-17T05:28:30.385Z,20.00
2022-10-17T05:29:30.320Z,28.00
2022-10-17T05:30:33.813Z,28.00
2022-10-17T05:31:31.307Z,36.00
2022-10-17T05:32:30.747Z,44.00
2022-10-17T05:33:30.297Z,52.00
2022-10-17T05:34:30.284Z,56.00
2022-10-17T05:35:30.306Z,64.00
2022-10-17T05:36:30.273Z,76.00
2022-10-17T05:37:30.263Z,84.00
2022-10-17T05:38:30.279Z,96.00
2022-10-17T05:39:30.247Z,108.00
2022-10-17T05:40:30.271Z,124.00
2022-10-17T05:41:30.226Z,140.00
2022-10-17T05:42:30.527Z,160.00
2022-10-17T05:43:30.220Z,180.00
2022-10-17T05:44:30.212Z,200.00
2022-10-17T05:45:30.311Z,224.00
2022-10-17T05:46:30.189Z,248.00
2022-10-17T05:47:30.503Z,276.00
2022-10-17T05:48:30.335Z,308.00
2022-10-17T05:49:46.039Z,348.00
2022-10-17T05:50:32.265Z,384.00
2022-10-17T05:51:30.259Z,420.00
2022-10-17T05:52:30.450Z,468.00
2022-10-17T05:53:30.137Z,520.00
2022-10-17T05:54:30.127Z,580.00
2022-10-17T05:55:30.154Z,636.00
2022-10-17T05:56:30.118Z,684.00
2022-10-17T05:57:30.105Z,720.00
2022-10-17T05:58:49.348Z,752.00
2022-10-17T05:59:32.095Z,796.00
2022-10-17T06:00:30.159Z,844.00
2022-10-17T06:01:30.148Z,872.00
2022-10-17T06:02:30.222Z,884.00
2022-10-17T06:03:30.053Z,904.00
2022-10-17T06:04:30.053Z,964.00
2022-10-17T06:05:30.044Z,1020.00
2022-10-17T06:06:30.065Z,1048.00
2022-10-17T06:07:30.031Z,1052.00
2022-10-17T06:08:30.018Z,1068.00
2022-10-17T06:09:30.012Z,1112.00
2022-10-17T06:10:30.002Z,1164.00
2022-10-17T06:11:30.027Z,1224.00
2022-10-17T06:12:30.396Z,1288.00
2022-10-17T06:13:29.979Z,1356.00
2022-10-17T06:14:29.967Z,1432.00
2022-10-17T06:15:29.968Z,1524.00
2022-10-17T06:16:29.983Z,1632.00
2022-10-17T06:17:29.957Z,1740.00
2022-10-17T06:18:29.941Z,1836.00
2022-10-17T06:19:29.926Z,1924.00
2022-10-17T06:20:29.913Z,2012.00
2022-10-17T06:21:29.937Z,2112.00
2022-10-17T06:22:30.302Z,2208.00
2022-10-17T06:23:29.894Z,2296.00
2022-10-17T06:24:29.888Z,2384.00
2022-10-17T06:25:29.883Z,2468.00
2022-10-17T06:26:29.906Z,2548.00
2022-10-17T06:27:29.864Z,2612.00
2022-10-17T06:28:29.874Z,2704.00
2022-10-17T06:29:29.849Z,2852.00
2022-10-17T06:30:29.834Z,3064.00
2022-10-17T06:31:29.854Z,3312.00
2022-10-17T06:32:30.009Z,3568.00
2022-10-17T06:33:29.826Z,3812.00
2022-10-17T06:34:29.806Z,4056.00
2022-10-17T06:35:29.797Z,4232.00
2022-10-17T06:36:29.817Z,4436.00
2022-10-17T06:37:31.057Z,4804.00
2022-10-17T06:38:30.772Z,5444.00
2022-10-17T06:39:29.764Z,6820.00
2022-10-17T06:40:29.765Z,10764.00
2022-10-17T06:41:29.775Z,12256.00
2022-10-17T06:42:29.747Z,15424.00
2022-10-17T06:43:29.738Z,11564.00
2022-10-17T06:44:29.731Z,10320.00
2022-10-17T06:45:29.715Z,11592.00
2022-10-17T06:46:29.743Z,16192.00
2022-10-17T06:47:30.039Z,19200.00
2022-10-17T06:48:29.697Z,12256.00
2022-10-17T06:49:29.678Z,14880.00
2022-10-17T06:50:29.673Z,8716.00
2022-10-17T06:51:30.690Z,7068.00
2022-10-17T06:52:29.656Z,7100.00
2022-10-17T06:53:29.647Z,8524.00
2022-10-17T06:54:29.649Z,7332.00
2022-10-17T06:55:29.636Z,7228.00
2022-10-17T06:56:29.652Z,7264.00
2022-10-17T06:57:29.905Z,11472.00
2022-10-17T06:58:29.624Z,13932.00
2022-10-17T06:59:29.601Z,8840.00
2022-10-17T07:00:29.598Z,8436.00
2022-10-17T07:01:29.616Z,9708.00
2022-10-17T07:02:29.760Z,8072.00
2022-10-17T07:03:29.576Z,8632.00
2022-10-17T07:04:29.576Z,7932.00
2022-10-17T07:05:29.551Z,7940.00
2022-10-17T07:06:29.574Z,11028.00
2022-10-17T07:07:29.715Z,16160.00
2022-10-17T07:08:29.530Z,23392.00
2022-10-17T07:09:29.528Z,10088.00
2022-10-17T07:10:29.542Z,9396.00
2022-10-17T07:11:29.547Z,22272.00
2022-10-17T07:12:29.505Z,9900.00
2022-10-17T07:13:29.497Z,16416.00
2022-10-17T07:14:29.494Z,17984.00
2022-10-17T07:15:29.479Z,26336.00
2022-10-17T07:16:29.502Z,20736.00
2022-10-17T07:17:29.665Z,23328.00
2022-10-17T07:18:29.458Z,24352.00
2022-10-17T07:19:29.447Z,22368.00
2022-10-17T07:20:29.451Z,19808.00
2022-10-17T07:21:29.465Z,19136.00
2022-10-17T07:22:29.432Z,17760.00
2022-10-17T07:23:29.421Z,21312.00
2022-10-17T07:24:29.414Z,22432.00
2022-10-17T07:25:29.408Z,22272.00
2022-10-17T07:26:29.431Z,22624.00
2022-10-17T07:27:29.698Z,23040.00
2022-10-17T07:28:29.395Z,26688.00
2022-10-17T07:29:29.382Z,28256.00
2022-10-17T07:30:29.362Z,30304.00
2022-10-17T07:31:29.392Z,32320.00
2022-10-17T07:32:29.353Z,33504.00
2022-10-17T07:33:29.359Z,25984.00
2022-10-17T07:34:29.335Z,23232.00
2022-10-17T07:35:29.343Z,30784.00
2022-10-17T07:36:29.343Z,39456.00
2022-10-17T07:37:29.585Z,40608.00
2022-10-17T07:38:29.300Z,35872.00
2022-10-17T07:39:29.293Z,39072.00
2022-10-17T07:40:29.284Z,36512.00
2022-10-17T07:41:29.304Z,39616.00
2022-10-17T07:42:29.309Z,39936.00
2022-10-17T07:43:29.260Z,35712.00
2022-10-17T07:44:29.250Z,37312.00
2022-10-17T07:45:29.243Z,48256.00
2022-10-17T07:46:29.262Z,52160.00
2022-10-17T07:47:29.444Z,48960.00
2022-10-17T07:48:29.220Z,61824.00
2022-10-17T07:49:29.215Z,68544.00
2022-10-17T07:50:29.209Z,82400.00
2022-10-17T07:51:29.231Z,72864.00
2022-10-17T07:52:29.580Z,65600.00
2022-10-17T07:53:29.182Z,58208.00
2022-10-17T07:54:29.170Z,49600.00
2022-10-17T07:55:29.163Z,42496.00
2022-10-17T07:56:29.186Z,37408.00
2022-10-17T07:57:29.153Z,34112.00
2022-10-17T07:58:29.148Z,31936.00
2022-10-17T07:59:29.136Z,30688.00
2022-10-17T08:00:29.130Z,29280.00
2022-10-17T08:01:29.147Z,28352.00
2022-10-17T08:02:29.410Z,27392.00
2022-10-17T08:03:29.115Z,26528.00
2022-10-17T08:04:29.099Z,25664.00
2022-10-17T08:05:29.096Z,25408.00
2022-10-17T08:06:29.116Z,24832.00
2022-10-17T08:07:29.585Z,24000.00
2022-10-17T08:08:30.088Z,23808.00
2022-10-17T08:09:29.064Z,22464.00
2022-10-17T08:10:29.056Z,20736.00
2022-10-17T08:11:29.044Z,20128.00
2022-10-17T08:12:29.393Z,18848.00
2022-10-17T08:13:29.033Z,17152.00
2022-10-17T08:14:29.026Z,13476.00
2022-10-17T08:15:31.738Z,13616.00
2022-10-17T08:16:28.998Z,13180.00
2022-10-17T08:17:30.028Z,13216.00
2022-10-17T08:18:28.999Z,13052.00
2022-10-17T08:19:28.988Z,13376.00
2022-10-17T08:20:28.978Z,13104.00
2022-10-17T08:21:28.971Z,13620.00
2022-10-17T08:22:29.222Z,13740.00
2022-10-17T08:23:28.965Z,13636.00
2022-10-17T08:24:28.960Z,13380.00
2022-10-17T08:25:28.955Z,13868.00
2022-10-17T08:26:28.937Z,14308.00
2022-10-17T08:27:28.956Z,14328.00
2022-10-17T08:28:29.002Z,14032.00
2022-10-17T08:29:28.918Z,14216.00
2022-10-17T08:30:28.911Z,14236.00
2022-10-17T08:31:28.937Z,14340.00
2022-10-17T08:32:29.188Z,14324.00
2022-10-17T08:33:28.891Z,14056.00
2022-10-17T08:34:28.897Z,14060.00
2022-10-17T08:35:28.878Z,14408.00
2022-10-17T08:36:28.909Z,14740.00
2022-10-17T08:37:29.268Z,14436.00
2022-10-17T08:38:29.405Z,15344.00
2022-10-17T08:39:28.847Z,14896.00
2022-10-17T08:40:28.840Z,15468.00
2022-10-17T08:41:28.976Z,15904.00
2022-10-17T08:42:28.817Z,15744.00
2022-10-17T08:43:32.207Z,15612.00
2022-10-17T08:44:29.807Z,15648.00
2022-10-17T08:45:28.799Z,16448.00
2022-10-17T08:46:28.799Z,15428.00
2022-10-17T08:47:29.168Z,14656.00
2022-10-17T08:48:28.779Z,14252.00
2022-10-17T08:49:28.769Z,14096.00
2022-10-17T08:50:28.764Z,13896.00
2022-10-17T08:51:28.754Z,14520.00
2022-10-17T08:52:28.774Z,14872.00
2022-10-17T08:53:28.743Z,14720.00
2022-10-17T08:54:28.736Z,14452.00
2022-10-17T08:55:28.725Z,14512.00
2022-10-17T08:56:44.585Z,14464.00
2022-10-17T08:57:31.120Z,13180.00
2022-10-17T08:58:28.711Z,13700.00
2022-10-17T08:59:28.699Z,12480.00
2022-10-17T09:00:28.691Z,13288.00
2022-10-17T09:01:28.682Z,13540.00
2022-10-17T09:02:28.768Z,15148.00
2022-10-17T09:03:28.729Z,15168.00
2022-10-17T09:04:28.709Z,15284.00
2022-10-17T09:05:28.659Z,15400.00
2022-10-17T09:06:28.650Z,14736.00
2022-10-17T09:07:28.911Z,14768.00
2022-10-17T09:08:28.643Z,14408.00
2022-10-17T09:09:28.628Z,14400.00
2022-10-17T09:10:28.616Z,14760.00
2022-10-17T09:11:28.615Z,13048.00
2022-10-17T09:12:28.791Z,14316.00
2022-10-17T09:13:28.633Z,13232.00
2022-10-17T09:14:28.587Z,13412.00
2022-10-17T09:15:28.586Z,13268.00
2022-10-17T09:16:28.644Z,13452.00
2022-10-17T09:17:28.882Z,13372.00
2022-10-17T09:18:28.563Z,13240.00
2022-10-17T09:19:28.554Z,13232.00
2022-10-17T09:20:28.543Z,12804.00
2022-10-17T09:21:28.541Z,12440.00
2022-10-17T09:22:28.544Z,12752.00
2022-10-17T09:23:29.524Z,12344.00
2022-10-17T09:24:28.521Z,12040.00
2022-10-17T09:25:28.520Z,12120.00
2022-10-17T09:26:28.501Z,11956.00
2022-10-17T09:27:28.725Z,11716.00
2022-10-17T09:28:28.501Z,12232.00
2022-10-17T09:29:34.176Z,12192.00
2022-10-17T09:30:44.592Z,12132.00
2022-10-17T09:31:30.463Z,12120.00
2022-10-17T09:32:28.757Z,11888.00
2022-10-17T09:33:35.373Z,11980.00
2022-10-17T09:34:29.428Z,12052.00
2022-10-17T09:35:28.432Z,11696.00
2022-10-17T09:36:28.534Z,11532.00
2022-10-17T09:37:28.452Z,11560.00
2022-10-17T09:38:28.407Z,11136.00
2022-10-17T09:39:28.521Z,11660.00
2022-10-17T09:40:28.398Z,11884.00
2022-10-17T09:41:45.877Z,10780.00
2022-10-17T09:42:30.753Z,11396.00
2022-10-17T09:43:28.367Z,11100.00
2022-10-17T09:44:28.389Z,11280.00
2022-10-17T09:45:28.364Z,10852.00
2022-10-17T09:46:28.347Z,10748.00
2022-10-17T09:47:28.362Z,10556.00
2022-10-17T09:48:28.373Z,10752.00
2022-10-17T09:49:28.405Z,10864.00
2022-10-17T09:50:28.327Z,10760.00
2022-10-17T09:51:28.322Z,10968.00
2022-10-17T09:52:28.687Z,11208.00
2022-10-17T09:53:28.297Z,11876.00
2022-10-17T09:54:28.288Z,11900.00
2022-10-17T09:55:28.285Z,11992.00
2022-10-17T09:56:28.281Z,12200.00
2022-10-17T09:57:28.306Z,12452.00
2022-10-17T09:58:28.268Z,11828.00
2022-10-17T09:59:28.255Z,11560.00
2022-10-17T10:00:28.305Z,11720.00
2022-10-17T10:01:28.316Z,11492.00
2022-10-17T10:02:28.618Z,10760.00
2022-10-17T10:03:28.230Z,10804.00
2022-10-17T10:04:30.475Z,10628.00
2022-10-17T10:05:29.211Z,10372.00
2022-10-17T10:06:28.201Z,10172.00
2022-10-17T10:07:29.488Z,10072.00
2022-10-17T10:08:29.187Z,9964.00
2022-10-17T10:09:28.195Z,9648.00
2022-10-17T10:10:28.283Z,9772.00
2022-10-17T10:11:28.177Z,9632.00
2022-10-17T10:12:28.471Z,9480.00
2022-10-17T10:13:28.157Z,9416.00
2022-10-17T10:14:28.149Z,9312.00
2022-10-17T10:15:28.142Z,9248.00
2022-10-17T10:16:28.124Z,9184.00
2022-10-17T10:17:28.350Z,9132.00
2022-10-17T10:18:28.125Z,9120.00
2022-10-17T10:19:28.102Z,9004.00
2022-10-17T10:20:28.089Z,8788.00
2022-10-17T10:21:28.089Z,8808.00
2022-10-17T10:22:28.525Z,8832.00
2022-10-17T10:23:28.073Z,8732.00
2022-10-17T10:24:30.787Z,8560.00
2022-10-17T10:25:29.057Z,8548.00
2022-10-17T10:26:28.047Z,8596.00
2022-10-17T10:27:28.082Z,8568.00
2022-10-17T10:28:28.115Z,8684.00
2022-10-17T10:29:28.031Z,8876.00
2022-10-17T10:30:28.022Z,8948.00
2022-10-17T10:31:28.020Z,8868.00
2022-10-17T10:32:28.395Z,8816.00
2022-10-17T10:33:28.022Z,8820.00
2022-10-17T10:34:27.993Z,8724.00
2022-10-17T10:35:27.987Z,8696.00
2022-10-17T10:36:28.005Z,8704.00
2022-10-17T10:37:28.362Z,8716.00
2022-10-17T10:38:27.984Z,8604.00
2022-10-17T10:39:27.955Z,8580.00
2022-10-17T10:40:27.952Z,8480.00
2022-10-17T10:41:27.932Z,8348.00
2022-10-17T10:42:27.957Z,8272.00
2022-10-17T10:43:27.936Z,8228.00
2022-10-17T10:44:27.910Z,8228.00
2022-10-17T10:45:47.942Z,8232.00
2022-10-17T10:46:29.966Z,8224.00
2022-10-17T10:47:28.291Z,8192.00
2022-10-17T10:48:27.875Z,8080.00
2022-10-17T10:49:27.867Z,8116.00
2022-10-17T10:50:27.866Z,8128.00
2022-10-17T10:51:27.861Z,8136.00
2022-10-17T10:52:27.842Z,8136.00
2022-10-17T10:53:29.833Z,8144.00
2022-10-17T10:54:27.892Z,8144.00
2022-10-17T10:55:27.820Z,8124.00
2022-10-17T10:56:27.816Z,8100.00
2022-10-17T10:57:28.092Z,8084.00
2022-10-17T10:58:27.833Z,8060.00
2022-10-17T10:59:27.797Z,8012.00
2022-10-17T11:00:27.810Z,7972.00
2022-10-17T11:01:27.779Z,7932.00
2022-10-17T11:02:27.780Z,7844.00
2022-10-17T11:03:27.908Z,7848.00
2022-10-17T11:04:27.757Z,7804.00
2022-10-17T11:05:27.760Z,7788.00
2022-10-17T11:06:27.743Z,7748.00
2022-10-17T11:07:28.020Z,7744.00
2022-10-17T11:08:27.754Z,7836.00
2022-10-17T11:09:30.078Z,7976.00
2022-10-17T11:10:29.706Z,8164.00
2022-10-17T11:11:27.733Z,8264.00
2022-10-17T11:12:27.699Z,8348.00
2022-10-17T11:13:27.714Z,8364.00
2022-10-17T11:14:27.677Z,8168.00
2022-10-17T11:15:27.668Z,8104.00
2022-10-17T11:16:27.676Z,7944.00
2022-10-17T11:17:28.152Z,7780.00
2022-10-17T11:18:27.683Z,7636.00
2022-10-17T11:19:27.639Z,7504.00
2022-10-17T11:20:27.635Z,7372.00
2022-10-17T11:21:27.706Z,7280.00
2022-10-17T11:22:29.251Z,7228.00
2022-10-17T11:23:27.646Z,7152.00
2022-10-17T11:24:27.612Z,7084.00
2022-10-17T11:25:27.604Z,7036.00
2022-10-17T11:26:27.593Z,6944.00
2022-10-17T11:27:27.594Z,6912.00
2022-10-17T11:28:27.669Z,6868.00
2022-10-17T11:29:27.562Z,6808.00
2022-10-17T11:30:27.557Z,6752.00
2022-10-17T11:31:27.547Z,6740.00
2022-10-17T11:32:28.000Z,6736.00
2022-10-17T11:33:27.560Z,6704.00
2022-10-17T11:34:27.527Z,6668.00
2022-10-17T11:35:27.520Z,6652.00
2022-10-17T11:36:27.542Z,6620.00
2022-10-17T11:37:27.509Z,6600.00
2022-10-17T11:38:27.528Z,6592.00
2022-10-17T11:39:27.495Z,6580.00
2022-10-17T11:40:27.491Z,6592.00
2022-10-17T11:41:27.472Z,6612.00
2022-10-17T11:42:27.806Z,6644.00
2022-10-17T11:43:27.485Z,6632.00
2022-10-17T11:44:27.457Z,6568.00
2022-10-17T11:45:27.440Z,6508.00
2022-10-17T11:46:27.523Z,6492.00
2022-10-17T11:47:27.433Z,6432.00
2022-10-17T11:48:27.447Z,6396.00
2022-10-17T11:52:51.881Z,6456.00
2022-10-17T11:53:29.411Z,6432.00
2022-10-17T11:54:27.382Z,6428.00
2022-10-17T11:55:27.369Z,6416.00
2022-10-17T11:56:27.387Z,6396.00
2022-10-17T11:57:27.356Z,6396.00
2022-10-17T11:59:27.341Z,6416.00
2022-10-17T12:00:27.340Z,6412.00
2022-10-17T12:01:27.325Z,6404.00
2022-10-17T12:02:27.574Z,6404.00
2022-10-17T12:03:27.335Z,6420.00
2022-10-17T12:04:27.375Z,6416.00
2022-10-17T12:05:27.298Z,6384.00
2022-10-17T12:06:29.469Z,5948.00
2022-10-17T12:07:28.875Z,6392.00
2022-10-17T12:08:30.474Z,6444.00
2022-10-17T12:09:27.267Z,6416.00
2022-10-17T12:10:27.254Z,6364.00
2022-10-17T12:11:27.248Z,6272.00
2022-10-17T12:12:27.516Z,6444.00
2022-10-17T12:13:27.260Z,6472.00
2022-10-17T12:14:27.227Z,6516.00
2022-10-17T12:15:27.223Z,6548.00
2022-10-17T12:16:27.214Z,6600.00
2022-10-17T12:17:27.534Z,6660.00
2022-10-17T12:18:27.207Z,6796.00
2022-10-17T12:19:27.193Z,6888.00
2022-10-17T12:20:27.184Z,6960.00
2022-10-17T12:21:31.241Z,6852.00
2022-10-17T12:22:29.199Z,6744.00
2022-10-17T12:23:27.154Z,6640.00
2022-10-17T12:24:27.154Z,6532.00
2022-10-17T12:25:27.196Z,6556.00
2022-10-17T12:26:27.142Z,6660.00
2022-10-17T12:27:27.421Z,6656.00
2022-10-17T12:28:27.176Z,6628.00
2022-10-17T12:29:27.116Z,6624.00
2022-10-17T12:30:27.112Z,6672.00
2022-10-17T12:31:33.333Z,6708.00
2022-10-17T12:32:36.777Z,6740.00
2022-10-17T12:33:28.093Z,6664.00
2022-10-17T12:34:28.071Z,6636.00
2022-10-17T12:35:27.061Z,6568.00
2022-10-17T12:36:27.058Z,6636.00